Time;durP1;ratioP1;P1;durP2;ratioP2;P2;SDS_P1;SDS_P2;PMS_P1;PMS_P2;Temp;Humidity;BMP_temperature;BMP_pressure;BME280_temperature;BME280_humidity;BME280_pressure;Samples;Min_cycle;Max_cycle;Signal;HPM_P1;HPM_P2
2021/08/12 04:40:25;;;;;;;;;14.00;14.00;;;;;22.40;50.69;99318.19;6053552;28;96767;-58
2021/08/12 04:43:30;;;;;;;;;14.60;14.60;;;;;22.41;51.27;99319.84;6058043;28;97638;-59
2021/08/12 04:46:33;;;;;;;;;16.00;14.20;;;;;22.49;51.17;99321.13;6046938;28;97444;-58
2021/08/12 04:49:37;;;;;;;;;17.00;15.40;;;;;22.50;51.38;99328.25;6035618;28;97267;-57
2021/08/12 04:52:41;;;;;;;;;17.25;15.25;;;;;22.55;51.55;99333.72;6019187;29;97970;-59
2021/08/12 04:55:46;;;;;;;;;18.60;15.80;;;;;22.63;51.41;99330.31;6020064;28;98115;-60
2021/08/12 04:58:49;;;;;;;;;17.00;15.00;;;;;22.63;51.49;99329.50;6035875;28;96732;-59
2021/08/12 05:01:54;;;;;;;;;19.00;18.00;;;;;22.66;51.56;99339.94;6032103;28;97468;-58
2021/08/12 05:04:59;;;;;;;;;17.00;14.00;;;;;22.72;51.17;99349.81;6019906;29;96962;-58
2021/08/12 05:08:02;;;;;;;;;18.00;16.40;;;;;22.80;50.89;99349.16;6017697;29;96759;-59
2021/08/12 05:11:09;;;;;;;;;15.20;15.00;;;;;22.87;50.50;99347.69;6021933;28;97529;-57
2021/08/12 05:14:12;;;;;;;;;17.40;16.00;;;;;22.88;50.57;99349.34;6034974;28;97607;-58
2021/08/12 05:17:17;;;;;;;;;16.20;15.80;;;;;22.94;50.14;99354.78;6019937;29;97520;-58
2021/08/12 05:20:21;;;;;;;;;18.40;15.40;;;;;22.87;50.08;99346.91;6019613;28;97071;-58
2021/08/12 05:23:25;;;;;;;;;15.75;15.75;;;;;23.01;50.57;99355.28;6020470;28;96711;-60
2021/08/12 05:26:30;;;;;;;;;17.60;17.00;;;;;23.03;50.42;99364.88;6018476;29;97427;-58
2021/08/12 05:29:34;;;;;;;;;16.00;14.00;;;;;23.09;50.13;99362.88;6018597;29;97450;-60
2021/08/12 05:32:38;;;;;;;;;14.20;13.80;;;;;23.20;49.77;99362.50;6020403;28;97561;-57
2021/08/12 05:35:45;;;;;;;;;17.75;15.00;;;;;23.25;49.98;99367.09;6019879;28;97639;-59
2021/08/12 05:38:49;;;;;;;;;16.00;15.00;;;;;23.32;49.97;99368.38;6030253;28;97242;-58
2021/08/12 05:41:53;;;;;;;;;16.60;15.40;;;;;23.37;49.88;99364.75;6027554;28;97853;-59
2021/08/12 05:44:57;;;;;;;;;20.00;17.60;;;;;23.37;49.88;99361.16;6033271;28;97639;-58
2021/08/12 05:48:01;;;;;;;;;15.00;15.00;;;;;23.50;49.70;99360.50;6027298;28;96838;-59
2021/08/12 05:51:05;;;;;;;;;17.00;15.00;;;;;23.53;49.42;99359.91;6013398;28;97503;-59
2021/08/12 05:54:09;;;;;;;;;17.00;16.00;;;;;23.67;49.07;99364.41;6014488;28;97193;-58
2021/08/12 05:57:14;;;;;;;;;17.00;15.00;;;;;23.85;49.14;99370.22;6015928;29;97551;-58
2021/08/12 06:00:19;;;;;;;;;17.00;16.25;;;;;23.96;48.43;99358.75;6034755;28;97543;-58
2021/08/12 06:03:28;;;;;;;;;17.20;16.00;;;;;24.02;47.96;99359.50;6042286;28;98012;-57
2021/08/12 06:06:32;;;;;;;;;15.50;15.00;;;;;24.05;48.43;99356.13;6023589;28;97470;-58
2021/08/12 06:09:35;;;;;;;;;17.00;15.00;;;;;24.15;47.88;99365.06;6014153;29;97548;-59
2021/08/12 06:12:40;;;;;;;;;16.00;15.00;;;;;24.20;47.49;99360.63;6028110;28;97631;-57
2021/08/12 06:15:44;;;;;;;;;15.60;14.00;;;;;24.11;47.40;99333.72;6018598;28;98147;-59
2021/08/12 06:18:47;;;;;;;;;15.00;13.00;;;;;24.41;47.20;99367.47;6026502;28;96854;-57
2021/08/12 06:21:53;;;;;;;;;14.60;14.00;;;;;24.50;46.60;99371.16;6031450;28;96550;-57
2021/08/12 06:24:56;;;;;;;;;18.00;17.40;;;;;24.54;46.58;99366.69;6035291;28;96720;-58
2021/08/12 06:28:01;;;;;;;;;15.00;14.00;;;;;24.65;46.55;99373.66;6017931;29;97147;-61
2021/08/12 06:31:05;;;;;;;;;16.50;15.00;;;;;24.86;46.43;99376.88;6034321;28;97160;-56
2021/08/12 06:34:09;;;;;;;;;15.50;13.25;;;;;24.90;45.06;99373.25;6015457;29;97439;-58
2021/08/12 06:37:12;;;;;;;;;15.00;14.60;;;;;25.07;45.05;99367.13;6036036;28;97439;-59
2021/08/12 06:40:16;;;;;;;;;14.00;13.00;;;;;25.24;44.63;99377.56;6033945;28;96749;-57
2021/08/12 06:43:21;;;;;;;;;17.00;15.20;;;;;25.29;44.67;99374.72;6020954;28;97564;-59
2021/08/12 06:46:30;;;;;;;;;15.20;13.00;;;;;25.33;44.20;99376.53;6020578;29;96443;-57
2021/08/12 06:49:34;;;;;;;;;14.00;13.60;;;;;25.55;43.93;99380.56;6019825;28;96771;-57
2021/08/12 06:52:37;;;;;;;;;14.75;13.50;;;;;25.76;43.77;99376.22;6033291;28;96706;-58
2021/08/12 06:55:40;;;;;;;;;13.40;13.40;;;;;26.01;43.21;99375.66;6032849;28;97187;-56
2021/08/12 06:58:45;;;;;;;;;14.20;13.20;;;;;26.26;42.39;99377.88;6019396;28;97019;-59
2021/08/12 07:01:49;;;;;;;;;11.25;10.25;;;;;26.49;41.86;99375.91;6034329;28;96681;-58
2021/08/12 07:04:53;;;;;;;;;14.60;13.60;;;;;26.64;41.60;99383.81;6016663;28;96484;-60
2021/08/12 07:07:58;;;;;;;;;14.00;13.00;;;;;26.77;41.26;99379.38;6031873;28;96818;-59
2021/08/12 07:11:01;;;;;;;;;13.00;13.00;;;;;26.77;40.55;99386.84;6017683;28;96568;-59
2021/08/12 07:14:06;;;;;;;;;11.40;11.40;;;;;26.93;40.58;99390.88;6027205;28;97522;-58
2021/08/12 07:17:11;;;;;;;;;12.00;11.00;;;;;27.13;38.70;99390.31;6036058;28;97636;-58
2021/08/12 07:20:15;;;;;;;;;10.50;9.50;;;;;27.36;37.81;99400.22;6031692;28;98137;-60
2021/08/12 07:23:19;;;;;;;;;14.00;12.00;;;;;27.51;36.90;99397.00;6030199;28;97095;-60
2021/08/12 07:26:23;;;;;;;;;11.00;10.60;;;;;27.66;37.98;99394.97;6030807;28;97139;-59
2021/08/12 07:29:28;;;;;;;;;11.60;11.00;;;;;27.85;38.18;99396.31;6030228;28;98062;-59
2021/08/12 07:32:32;;;;;;;;;12.00;11.50;;;;;28.04;37.81;99390.47;6016717;29;97977;-60
2021/08/12 07:35:36;;;;;;;;;12.50;12.00;;;;;28.21;37.35;99398.00;6031276;28;98795;-60
2021/08/12 07:38:39;;;;;;;;;12.00;10.40;;;;;28.35;35.89;99402.25;6031407;28;97262;-58
2021/08/12 07:41:43;;;;;;;;;9.20;8.80;;;;;28.33;35.75;99393.44;6032677;28;96735;-59
2021/08/12 07:44:48;;;;;;;;;10.00;10.00;;;;;28.41;35.51;99402.91;6029825;28;96952;-60
2021/08/12 07:47:52;;;;;;;;;10.00;10.00;;;;;28.39;35.41;99397.66;6024578;28;97343;-59
2021/08/12 07:50:56;;;;;;;;;12.00;11.00;;;;;28.46;35.47;99396.38;6015375;29;97146;-61
2021/08/12 07:53:59;;;;;;;;;12.00;10.00;;;;;28.65;34.37;99410.72;6018943;29;96968;-59
2021/08/12 07:57:03;;;;;;;;;10.00;10.00;;;;;28.80;34.59;99411.06;6015798;29;97175;-59
2021/08/12 08:00:09;;;;;;;;;9.00;8.00;;;;;29.09;34.20;99404.78;6017196;29;97556;-59
2021/08/12 08:03:16;;;;;;;;;8.00;8.00;;;;;29.47;32.53;99409.56;6016379;29;97751;-58
2021/08/12 08:06:20;;;;;;;;;7.20;7.20;;;;;29.69;32.15;99409.28;6017001;28;97114;-59
2021/08/12 08:09:24;;;;;;;;;8.00;7.00;;;;;30.00;31.78;99418.13;6017524;29;97088;-58
2021/08/12 08:12:27;;;;;;;;;9.00;8.00;;;;;30.37;32.45;99418.34;6027155;28;96727;-59
2021/08/12 08:15:32;;;;;;;;;9.00;8.50;;;;;30.63;30.75;99427.31;6016853;28;97489;-57
2021/08/12 08:18:36;;;;;;;;;7.00;6.40;;;;;30.60;30.05;99430.75;6013569;28;97800;-59
2021/08/12 08:21:40;;;;;;;;;10.00;9.00;;;;;30.64;30.87;99431.72;6019609;28;96749;-60
2021/08/12 08:24:43;;;;;;;;;7.40;7.00;;;;;30.85;30.95;99418.56;6020157;28;96621;-58
2021/08/12 08:27:46;;;;;;;;;7.60;7.00;;;;;31.06;30.54;99423.31;6019478;29;97227;-59
2021/08/12 08:31:02;;;;;;;;;6.60;6.60;;;;;31.18;28.94;99423.34;6018932;29;96756;-58
2021/08/12 08:34:05;;;;;;;;;4.00;4.00;;;;;31.41;29.10;99430.13;6020056;29;98702;-59
2021/08/12 08:37:09;;;;;;;;;7.00;7.00;;;;;31.48;29.18;99419.19;6018800;28;98070;-59
2021/08/12 08:40:16;;;;;;;;;6.60;6.00;;;;;31.72;29.07;99432.34;6041470;28;97113;-58
2021/08/12 08:43:19;;;;;;;;;6.00;6.00;;;;;31.71;27.66;99442.72;6042223;28;96798;-60
2021/08/12 08:46:25;;;;;;;;;7.00;6.00;;;;;32.02;28.26;99421.75;6034282;28;96887;-63
2021/08/12 08:49:30;;;;;;;;;7.00;6.00;;;;;32.47;28.22;99432.72;6042647;28;97636;-60
2021/08/12 08:52:36;;;;;;;;;8.00;6.60;;;;;32.52;27.40;99429.69;6041291;28;97471;-58
2021/08/12 08:55:39;;;;;;;;;7.00;6.75;;;;;32.58;26.47;99433.84;6041208;28;96790;-59
2021/08/12 08:58:43;;;;;;;;;7.00;7.00;;;;;32.66;26.69;99419.78;6038112;28;97535;-60
2021/08/12 09:01:48;;;;;;;;;8.00;7.40;;;;;32.75;26.24;99419.63;6040849;28;97236;-61
2021/08/12 09:04:55;;;;;;;;;8.00;8.00;;;;;32.46;25.73;99420.75;6036678;28;98211;-59
2021/08/12 09:08:00;;;;;;;;;8.00;7.80;;;;;32.35;25.95;99414.06;6040932;28;97543;-59
2021/08/12 09:11:04;;;;;;;;;8.00;8.00;;;;;32.53;26.18;99411.78;6041125;28;97415;-58
2021/08/12 09:14:33;;;;;;;;;7.00;7.00;;;;;32.98;26.46;99431.03;6038848;28;97668;-60
2021/08/12 09:17:38;;;;;;;;;7.00;7.00;;;;;32.84;26.12;99427.84;6041465;28;98601;-58
2021/08/12 09:20:44;;;;;;;;;9.00;9.00;;;;;32.56;26.55;99439.78;6040379;28;97662;-60
2021/08/12 09:23:57;;;;;;;;;8.00;7.00;;;;;32.41;27.00;99437.75;6040814;28;96870;-60
2021/08/12 09:27:01;;;;;;;;;9.00;8.00;;;;;32.15;27.13;99440.97;6041091;28;97264;-60
2021/08/12 09:30:13;;;;;;;;;7.00;7.00;;;;;31.91;27.55;99438.16;6040931;28;97029;-59
2021/08/12 09:33:19;;;;;;;;;9.40;9.00;;;;;31.71;28.04;99442.72;6041559;28;97421;-58
2021/08/12 09:36:34;;;;;;;;;10.00;8.40;;;;;31.47;27.66;99445.44;6041636;28;97606;-59
2021/08/12 09:39:40;;;;;;;;;8.80;8.80;;;;;31.29;28.28;99446.78;6033662;28;97552;-58
2021/08/12 09:42:56;;;;;;;;;7.40;7.00;;;;;31.21;28.21;99445.75;6041941;28;96964;-58
2021/08/12 09:46:00;;;;;;;;;8.00;8.00;;;;;31.48;28.19;99447.06;6038305;28;97297;-57
2021/08/12 09:49:05;;;;;;;;;8.00;7.00;;;;;31.96;27.14;99446.28;6040650;28;97495;-58
2021/08/12 09:52:31;;;;;;;;;8.00;7.00;;;;;32.19;26.25;99441.06;6039985;28;98047;-60
2021/08/12 09:55:40;;;;;;;;;6.00;6.00;;;;;32.24;26.86;99446.41;6039017;28;97648;-59
2021/08/12 09:58:43;;;;;;;;;8.00;7.00;;;;;32.28;26.31;99444.53;6043704;28;96629;-57
2021/08/12 10:01:46;;;;;;;;;7.40;7.00;;;;;32.16;26.87;99442.56;6044740;28;97501;-60
2021/08/12 10:05:05;;;;;;;;;6.67;6.00;;;;;31.99;27.38;99451.16;6021180;28;97264;-59
2021/08/12 10:08:08;;;;;;;;;7.00;7.00;;;;;31.93;28.02;99444.19;6043397;28;97816;-59
2021/08/12 10:11:23;;;;;;;;;8.00;7.50;;;;;31.92;27.84;99445.34;6042230;28;96732;-58
2021/08/12 10:14:26;;;;;;;;;7.00;6.00;;;;;32.24;27.90;99444.44;6042723;28;96704;-59
2021/08/12 10:17:30;;;;;;;;;8.00;7.00;;;;;32.67;27.10;99442.94;6041894;28;96976;-59
2021/08/12 10:20:36;;;;;;;;;6.00;6.00;;;;;33.07;26.52;99443.69;6044084;28;96888;-60
2021/08/12 10:23:40;;;;;;;;;7.50;7.00;;;;;33.35;24.54;99435.25;6041307;28;97231;-59
2021/08/12 10:26:46;;;;;;;;;7.40;7.40;;;;;33.50;25.31;99442.84;6043537;28;97816;-59
2021/08/12 10:29:50;;;;;;;;;9.00;9.00;;;;;33.66;25.29;99442.84;6043570;28;97482;-60
2021/08/12 10:32:55;;;;;;;;;7.00;7.00;;;;;33.68;24.84;99445.28;6041810;28;97052;-59
2021/08/12 10:36:01;;;;;;;;;7.60;7.00;;;;;33.70;25.32;99415.81;6041364;28;96782;-59
2021/08/12 10:39:06;;;;;;;;;7.50;7.00;;;;;34.00;24.02;99444.09;6042767;28;97503;-59
2021/08/12 10:42:10;;;;;;;;;7.00;7.00;;;;;34.10;24.45;99446.31;6043616;28;98193;-58
2021/08/12 10:45:14;;;;;;;;;8.80;7.00;;;;;34.34;24.27;99434.91;6042132;28;96896;-60
2021/08/12 10:48:20;;;;;;;;;9.00;8.00;;;;;34.33;24.04;99433.28;6044138;28;97294;-60
2021/08/12 10:51:25;;;;;;;;;8.00;6.00;;;;;34.34;24.36;99434.09;6044740;28;97070;-60
2021/08/12 10:54:46;;;;;;;;;9.40;8.40;;;;;34.45;23.62;99435.16;6041773;28;97951;-62
2021/08/12 10:58:29;;;;;;;;;8.00;7.00;;;;;34.54;22.75;99440.53;6047113;28;97446;-59
2021/08/12 11:01:41;;;;;;;;;8.00;7.00;;;;;34.60;22.69;99430.66;6041755;28;97725;-59
2021/08/12 11:04:52;;;;;;;;;9.40;8.00;;;;;34.55;23.45;99431.72;6041736;28;97982;-58
2021/08/12 11:07:57;;;;;;;;;7.60;7.00;;;;;34.55;23.21;99434.53;6042604;28;97103;-59
2021/08/12 11:11:00;;;;;;;;;10.00;9.00;;;;;34.48;23.28;99431.59;6042796;28;96744;-57
2021/08/12 11:14:05;;;;;;;;;9.00;9.00;;;;;34.67;23.15;99431.63;6041155;28;96921;-59
2021/08/12 11:17:09;;;;;;;;;10.00;10.00;;;;;34.59;23.42;99431.81;6043037;28;96934;-59
2021/08/12 11:20:31;;;;;;;;;7.00;7.00;;;;;34.26;21.83;99435.91;6041437;28;97988;-61
2021/08/12 11:23:42;;;;;;;;;8.00;7.20;;;;;33.92;22.89;99428.28;6045219;28;97892;-59
2021/08/12 11:27:06;;;;;;;;;9.60;9.00;;;;;33.80;23.75;99428.41;6045401;28;97061;-61
2021/08/12 11:30:49;;;;;;;;;9.00;8.00;;;;;33.91;22.86;99429.50;6043636;28;98067;-60
2021/08/12 11:33:53;;;;;;;;;8.00;8.00;;;;;34.16;23.30;99432.88;6044458;28;96785;-62
2021/08/12 11:37:09;;;;;;;;;8.00;7.00;;;;;34.33;22.75;99419.28;6043569;28;97085;-59
2021/08/12 11:40:14;;;;;;;;;8.00;7.00;;;;;34.29;22.42;99423.19;6041049;28;98396;-60
2021/08/12 11:43:19;;;;;;;;;8.00;8.00;;;;;34.32;23.28;99419.63;6043060;28;97482;-61
2021/08/12 11:46:22;;;;;;;;;8.50;8.00;;;;;34.59;22.62;99426.22;6042872;28;97425;-59
2021/08/12 11:49:26;;;;;;;;;8.33;8.33;;;;;34.64;22.09;99420.34;6040909;28;97220;-60
2021/08/12 11:52:31;;;;;;;;;10.20;10.00;;;;;34.73;22.80;99421.75;6043176;28;97286;-62
2021/08/12 11:55:37;;;;;;;;;8.00;8.00;;;;;34.59;22.30;99426.22;6044883;28;98181;-60
2021/08/12 11:58:46;;;;;;;;;8.00;7.00;;;;;34.60;22.52;99413.84;6043299;28;96894;-61
2021/08/12 12:01:50;;;;;;;;;9.00;8.00;;;;;34.86;23.81;99408.38;6043112;28;98084;-62
2021/08/12 12:04:54;;;;;;;;;8.00;8.00;;;;;34.89;23.55;99418.06;6041496;28;97247;-60
2021/08/12 12:08:04;;;;;;;;;8.00;8.00;;;;;34.75;22.61;99427.78;6043068;28;97957;-60
2021/08/12 12:11:13;;;;;;;;;7.25;7.00;;;;;34.85;24.12;99419.94;6043634;28;96899;-61
2021/08/12 12:14:19;;;;;;;;;11.75;11.00;;;;;35.08;22.84;99413.22;6042950;28;97134;-61
2021/08/12 12:17:22;;;;;;;;;8.40;8.40;;;;;35.06;21.95;99418.38;6041952;28;97911;-61
2021/08/12 12:20:44;;;;;;;;;7.00;6.00;;;;;35.04;22.02;99405.94;6041490;28;96725;-58
2021/08/12 12:23:50;;;;;;;;;8.00;7.00;;;;;35.08;22.58;99399.22;6042615;28;97091;-60
2021/08/12 12:26:58;;;;;;;;;7.00;7.00;;;;;35.26;22.71;99396.75;6042731;28;96936;-60
2021/08/12 12:30:08;;;;;;;;;7.40;6.40;;;;;35.37;23.30;99392.16;6042920;28;96561;-61
2021/08/12 12:33:13;;;;;;;;;9.60;8.60;;;;;35.51;23.27;99386.78;6043738;28;97288;-60
2021/08/12 12:36:17;;;;;;;;;9.00;9.00;;;;;35.59;22.32;99390.47;6043506;28;96974;-61
2021/08/12 12:39:21;;;;;;;;;9.00;9.00;;;;;35.51;22.85;99394.38;6041655;28;97674;-60
2021/08/12 12:42:38;;;;;;;;;8.20;8.00;;;;;35.47;22.31;99387.91;6042814;28;97449;-62
2021/08/12 12:45:47;;;;;;;;;8.00;7.40;;;;;35.44;22.36;99386.63;6042046;28;97477;-60
2021/08/12 12:48:51;;;;;;;;;9.00;9.00;;;;;35.60;22.91;99389.31;6046035;28;97625;-58
2021/08/12 12:52:05;;;;;;;;;7.75;7.75;;;;;35.60;21.53;99389.31;6040563;28;98836;-58
2021/08/12 12:55:17;;;;;;;;;8.00;8.00;;;;;35.57;21.44;99390.06;6043793;28;96892;-59
2021/08/12 12:58:25;;;;;;;;;7.40;7.00;;;;;35.49;21.85;99391.13;6044036;28;97465;-59
2021/08/12 13:01:28;;;;;;;;;10.00;10.00;;;;;35.40;20.95;99384.97;6042827;28;97724;-59
2021/08/12 13:04:31;;;;;;;;;8.40;7.40;;;;;35.17;21.27;99391.41;6042863;28;97360;-59
2021/08/12 13:07:35;;;;;;;;;9.00;9.00;;;;;35.18;21.71;99381.00;6044925;28;97441;-59
2021/08/12 13:10:38;;;;;;;;;9.00;8.00;;;;;35.16;21.18;99380.53;6043122;28;96743;-57
2021/08/12 13:13:46;;;;;;;;;10.40;9.40;;;;;34.94;21.24;99356.13;6042695;28;96721;-57
2021/08/12 13:16:51;;;;;;;;;8.50;8.50;;;;;34.97;21.08;99374.97;6042433;28;97082;-56
2021/08/12 13:20:08;;;;;;;;;8.00;8.00;;;;;35.09;20.92;99363.59;6043054;28;97050;-58
2021/08/12 13:23:13;;;;;;;;;7.00;7.00;;;;;35.17;21.03;99373.78;6042169;28;98483;-60
2021/08/12 13:26:26;;;;;;;;;10.00;10.00;;;;;35.09;21.28;99369.97;6045499;28;96715;-59
2021/08/12 13:29:33;;;;;;;;;8.00;8.00;;;;;35.21;21.98;99366.22;6042946;28;97280;-60
2021/08/12 13:32:36;;;;;;;;;9.00;8.75;;;;;35.42;22.24;99372.19;6048217;28;96663;-59
2021/08/12 13:35:40;;;;;;;;;8.60;8.00;;;;;35.50;21.40;99371.13;6042430;28;96593;-60
2021/08/12 13:38:44;;;;;;;;;10.00;9.00;;;;;35.48;21.63;99367.09;6040204;28;97209;-58
2021/08/12 13:41:50;;;;;;;;;10.25;9.00;;;;;35.49;20.98;99366.69;6044443;28;97156;-59
2021/08/12 13:44:55;;;;;;;;;10.00;9.00;;;;;35.45;20.80;99360.22;6042081;28;96606;-59
2021/08/12 13:47:59;;;;;;;;;9.00;9.00;;;;;35.29;20.58;99358.72;6042091;28;97055;-58
2021/08/12 13:51:05;;;;;;;;;8.60;8.60;;;;;35.22;21.15;99355.81;6041079;28;96693;-60
2021/08/12 13:54:08;;;;;;;;;10.00;10.00;;;;;35.19;21.35;99358.19;6042085;28;97074;-61
2021/08/12 13:57:12;;;;;;;;;10.00;9.20;;;;;35.18;22.04;99365.00;6041681;28;97599;-59
2021/08/12 14:00:21;;;;;;;;;11.00;10.00;;;;;35.19;21.50;99349.78;6041058;28;97084;-58
2021/08/12 14:03:25;;;;;;;;;10.00;10.00;;;;;35.20;21.70;99361.78;6040381;28;97573;-60
2021/08/12 14:06:28;;;;;;;;;10.00;9.00;;;;;35.16;22.35;99353.31;6040210;28;97529;-59
2021/08/12 14:09:32;;;;;;;;;9.40;9.40;;;;;35.15;21.51;99350.88;6040673;28;96739;-58
2021/08/12 14:12:35;;;;;;;;;10.80;10.00;;;;;35.01;21.59;99354.25;6038984;28;97057;-58
2021/08/12 14:15:40;;;;;;;;;8.00;8.00;;;;;34.82;21.07;99361.88;6032137;28;98021;-60
2021/08/12 14:18:44;;;;;;;;;9.25;9.25;;;;;34.45;21.96;99369.94;6037790;28;97573;-59
2021/08/12 14:21:47;;;;;;;;;11.00;9.40;;;;;34.30;22.15;99358.44;6037477;28;98703;-59
2021/08/12 14:24:52;;;;;;;;;11.00;11.00;;;;;34.18;22.29;99357.75;6038055;28;97260;-60
2021/08/12 14:27:55;;;;;;;;;11.00;11.00;;;;;34.10;22.90;99358.75;6039290;28;97693;-58
2021/08/12 14:31:01;;;;;;;;;11.00;10.40;;;;;34.14;22.78;99368.03;6038012;28;97469;-60
2021/08/12 14:34:04;;;;;;;;;10.00;10.00;;;;;34.25;23.15;99360.72;6037005;28;97464;-59
2021/08/12 14:37:07;;;;;;;;;8.60;8.20;;;;;34.39;22.85;99357.41;6036310;28;96783;-60
2021/08/12 14:40:11;;;;;;;;;8.00;8.00;;;;;34.37;22.45;99360.56;6037006;28;96920;-59
2021/08/12 14:43:15;;;;;;;;;9.00;9.00;;;;;34.30;22.59;99355.66;6020736;28;97583;-61
2021/08/12 14:46:19;;;;;;;;;10.60;10.00;;;;;34.18;22.37;99364.19;6041980;28;97554;-58
2021/08/12 14:49:23;;;;;;;;;12.00;10.00;;;;;33.92;22.59;99353.56;6042704;28;96759;-59
2021/08/12 14:52:26;;;;;;;;;10.00;10.00;;;;;33.80;23.12;99361.28;6043692;28;97572;-58
2021/08/12 14:55:30;;;;;;;;;9.00;9.00;;;;;33.66;23.08;99372.94;6041837;28;97675;-58
2021/08/12 14:58:33;;;;;;;;;11.00;10.00;;;;;33.63;23.61;99365.25;6042474;28;97285;-58
2021/08/12 15:01:38;;;;;;;;;10.00;10.00;;;;;33.57;23.42;99363.94;6023860;28;99443;-59
2021/08/12 15:04:42;;;;;;;;;12.00;11.00;;;;;33.40;24.09;99365.09;6043773;28;96748;-60
2021/08/12 15:07:45;;;;;;;;;12.40;12.00;;;;;33.26;23.98;99361.97;6041725;28;97124;-59
2021/08/12 15:10:48;;;;;;;;;12.40;12.40;;;;;33.01;24.41;99357.69;6040796;28;98603;-60
2021/08/12 15:13:52;;;;;;;;;11.40;11.00;;;;;32.89;24.62;99349.41;6040592;28;97469;-58
2021/08/12 15:16:56;;;;;;;;;10.40;10.40;;;;;32.89;24.24;99350.19;6040555;28;97458;-59
2021/08/12 15:19:59;;;;;;;;;10.75;8.00;;;;;32.83;24.44;99345.25;6040793;28;97671;-59
2021/08/12 15:23:03;;;;;;;;;9.00;9.00;;;;;32.80;24.21;99348.72;6040678;28;98581;-60
2021/08/12 15:26:06;;;;;;;;;11.00;10.60;;;;;32.75;24.56;99354.56;6041555;28;96724;-60
2021/08/12 15:29:10;;;;;;;;;10.00;9.00;;;;;32.71;24.24;99351.69;6033110;28;97604;-60
2021/08/12 15:32:14;;;;;;;;;10.25;10.00;;;;;32.60;24.49;99348.56;6039736;28;96740;-60
2021/08/12 15:35:18;;;;;;;;;11.60;10.00;;;;;32.55;24.03;99348.00;6039527;28;97562;-59
2021/08/12 15:38:21;;;;;;;;;12.75;12.75;;;;;32.40;24.05;99346.00;6034852;28;97505;-58
2021/08/12 15:41:24;;;;;;;;;10.00;10.00;;;;;32.32;24.61;99338.59;6042519;28;97824;-60
2021/08/12 15:44:28;;;;;;;;;12.00;12.00;;;;;32.21;25.31;99344.66;6043923;28;97217;-57
2021/08/12 15:47:33;;;;;;;;;11.20;11.00;;;;;32.22;25.29;99348.28;6041112;28;97067;-57
2021/08/12 16:13:39;;;;;;;;;10.00;9.00;;;;;31.73;24.50;99342.78;6033086;28;96638;-56
2021/08/12 16:16:42;;;;;;;;;8.20;8.00;;;;;31.66;24.63;99342.59;6028480;28;97307;-56
2021/08/12 16:19:46;;;;;;;;;10.00;9.00;;;;;31.62;25.37;99347.22;6040691;28;96782;-58
2021/08/12 16:22:49;;;;;;;;;9.00;8.50;;;;;31.62;25.89;99352.00;6041918;28;98640;-58
2021/08/12 16:25:53;;;;;;;;;9.00;9.00;;;;;31.58;25.37;99354.66;6042363;28;97487;-59
2021/08/12 16:28:57;;;;;;;;;8.50;7.50;;;;;31.53;24.85;99343.72;6041628;28;96953;-58
2021/08/12 16:32:01;;;;;;;;;8.00;7.00;;;;;31.42;25.27;99346.16;6044134;28;96684;-59
2021/08/12 16:35:06;;;;;;;;;9.40;8.60;;;;;31.40;25.03;99356.03;6042739;28;97524;-58
2021/08/12 16:38:09;;;;;;;;;9.00;9.00;;;;;31.28;25.03;99350.44;6042222;28;98633;-59
2021/08/12 16:41:13;;;;;;;;;9.40;9.00;;;;;31.22;25.42;99360.22;6041550;28;96704;-59
2021/08/12 16:44:18;;;;;;;;;11.00;10.00;;;;;31.16;25.26;99353.22;6041388;28;98659;-59
2021/08/12 16:47:21;;;;;;;;;10.00;9.60;;;;;31.11;26.38;99353.47;6040539;28;98121;-57
2021/08/12 16:50:24;;;;;;;;;11.00;11.00;;;;;31.07;26.25;99350.56;6040509;28;97467;-59
2021/08/12 16:53:27;;;;;;;;;10.00;10.00;;;;;30.98;26.32;99347.03;6042715;28;97634;-57
2021/08/12 16:56:32;;;;;;;;;12.00;11.00;;;;;30.92;26.51;99351.19;6024004;28;98629;-59
2021/08/12 16:59:37;;;;;;;;;10.50;10.50;;;;;30.82;26.56;99348.84;6041865;28;97613;-59
2021/08/12 17:02:40;;;;;;;;;14.00;12.00;;;;;30.70;26.88;99337.66;6040808;28;96831;-60
2021/08/12 17:05:43;;;;;;;;;14.00;12.00;;;;;30.63;26.80;99352.16;6040249;28;97475;-61
2021/08/12 17:08:47;;;;;;;;;14.00;13.00;;;;;30.59;27.51;99339.28;6039090;28;97438;-59
2021/08/12 17:11:51;;;;;;;;;15.40;15.00;;;;;30.46;27.06;99339.22;6041940;28;97418;-60
2021/08/12 17:14:55;;;;;;;;;11.00;11.00;;;;;30.38;27.24;99342.88;6040344;28;97445;-61
2021/08/12 17:17:59;;;;;;;;;12.00;12.00;;;;;30.32;27.37;99343.44;6042746;28;97510;-58
2021/08/12 17:21:03;;;;;;;;;12.00;11.00;;;;;30.27;28.08;99341.69;6041354;28;96792;-59
2021/08/12 17:24:06;;;;;;;;;12.80;12.00;;;;;30.21;27.42;99331.91;6038357;28;97588;-58
2021/08/12 17:27:10;;;;;;;;;11.60;11.60;;;;;30.15;27.44;99340.81;6031033;28;96683;-60
2021/08/12 17:30:15;;;;;;;;;10.00;10.00;;;;;30.06;28.64;99338.09;6043375;28;97225;-58
2021/08/12 17:33:18;;;;;;;;;11.50;11.00;;;;;29.90;29.15;99349.03;6048398;28;96782;-59
2021/08/12 17:36:22;;;;;;;;;13.00;12.00;;;;;29.76;31.07;99350.41;6037436;28;97106;-59
2021/08/12 17:39:25;;;;;;;;;13.00;12.00;;;;;29.58;32.47;99338.56;6039346;28;96694;-59
2021/08/12 17:42:28;;;;;;;;;11.00;10.60;;;;;29.32;33.85;99343.47;6041152;28;97084;-59
2021/08/12 17:45:36;;;;;;;;;13.00;12.00;;;;;29.06;35.02;99349.09;6045091;28;97169;-58
2021/08/12 17:48:40;;;;;;;;;15.60;14.00;;;;;28.82;35.19;99349.69;6042600;28;96595;-59
2021/08/12 17:51:43;;;;;;;;;12.40;11.00;;;;;28.68;35.71;99340.69;6041254;28;97109;-59
2021/08/12 17:54:46;;;;;;;;;11.80;11.00;;;;;28.51;35.60;99343.50;6033442;28;96564;-60
2021/08/12 17:57:50;;;;;;;;;10.25;10.25;;;;;28.39;35.57;99344.97;6036259;28;97300;-59
2021/08/12 18:00:56;;;;;;;;;12.00;11.00;;;;;28.29;36.09;99345.34;6042085;28;97493;-59
2021/08/12 18:04:00;;;;;;;;;11.00;10.25;;;;;28.13;36.49;99344.19;6042517;28;97243;-59
2021/08/12 18:07:03;;;;;;;;;13.40;11.40;;;;;27.98;37.06;99347.41;6041551;28;97722;-60
2021/08/12 18:10:08;;;;;;;;;11.60;11.00;;;;;27.73;37.87;99354.56;6041306;28;97257;-61
2021/08/12 18:13:12;;;;;;;;;15.00;13.00;;;;;27.60;37.57;99355.53;6039892;28;97511;-58
2021/08/12 18:16:17;;;;;;;;;12.00;12.00;;;;;27.53;37.79;99361.53;6041496;28;97554;-59
2021/08/12 18:19:21;;;;;;;;;13.00;13.00;;;;;27.44;37.22;99359.84;6044676;28;97545;-58
2021/08/12 18:22:24;;;;;;;;;12.00;12.00;;;;;27.37;37.81;99360.28;6047645;28;97243;-60
2021/08/12 18:25:28;;;;;;;;;13.80;13.00;;;;;27.25;38.32;99367.59;6050850;28;97230;-60
2021/08/12 18:28:32;;;;;;;;;14.00;13.00;;;;;27.12;38.22;99369.34;6046186;28;97427;-60
2021/08/12 18:31:41;;;;;;;;;14.00;12.00;;;;;26.97;38.63;99373.34;6045509;28;97455;-58
2021/08/12 18:34:44;;;;;;;;;12.40;11.00;;;;;26.86;38.53;99371.97;6025066;28;98123;-61
2021/08/12 18:37:48;;;;;;;;;10.00;10.00;;;;;26.77;39.21;99379.38;6037214;28;96713;-60
2021/08/12 18:40:52;;;;;;;;;11.75;10.00;;;;;26.69;39.55;99377.34;6045432;28;96755;-60
2021/08/12 18:43:55;;;;;;;;;12.40;11.60;;;;;26.58;40.26;99379.59;6044669;28;97040;-60
2021/08/12 18:47:00;;;;;;;;;12.00;11.00;;;;;26.50;40.58;99380.31;6044756;28;97449;-60
2021/08/12 18:50:04;;;;;;;;;12.00;12.00;;;;;26.40;40.82;99380.56;6044561;28;97610;-60
2021/08/12 18:53:07;;;;;;;;;13.50;13.00;;;;;26.31;40.99;99379.69;6046610;28;97731;-59
2021/08/12 18:56:11;;;;;;;;;15.00;13.00;;;;;26.19;40.68;99374.66;6045054;28;97265;-59
2021/08/12 18:59:14;;;;;;;;;15.20;13.20;;;;;26.04;41.02;99369.53;6044108;28;97412;-59
2021/08/12 19:02:19;;;;;;;;;12.40;10.80;;;;;25.97;40.96;99373.84;6046147;28;97798;-59
2021/08/12 19:05:24;;;;;;;;;15.00;13.00;;;;;25.92;40.97;99382.22;6044671;28;97490;-59
2021/08/12 19:08:28;;;;;;;;;12.40;11.40;;;;;25.89;41.44;99375.41;6045365;28;96648;-60
2021/08/12 19:11:31;;;;;;;;;14.40;14.00;;;;;25.83;41.98;99387.69;6046131;28;96767;-59
2021/08/12 19:14:35;;;;;;;;;16.00;14.00;;;;;25.72;42.15;99387.06;6044375;28;98253;-59
2021/08/12 19:17:40;;;;;;;;;13.75;12.25;;;;;25.67;42.54;99395.47;6043822;28;96626;-58
2021/08/12 19:20:43;;;;;;;;;14.00;13.00;;;;;25.42;42.71;99368.34;6043875;28;97642;-59
2021/08/12 19:23:47;;;;;;;;;12.33;12.00;;;;;25.45;42.82;99398.94;6044621;28;97487;-58